Main page
METAR-TAF:

METAR-TAF

Airports :

City of Derry Airport

Derry, Northern Ireland

latitude: 55-03N, longitude: 007-09W, elevation: 9 m

Current weather observation

The report was made 24 minutes ago, at 13:20 UTC
Wind 7 kt from the North/Northeast
Temperature 20°C
Humidity 68%
Pressure 1022 hPa
Visibility 10 km or more
Few clouds at a height of 4000 ft

METAR: EGAE 241320Z 03007KT 9999 FEW040 20/14 Q1022

Time: 14:44 (13:44 UTC)

Forecast

The report was made 2 hours and 40 minutes ago, at 11:04 UTC
Forecast valid from 24 at 12 UTC to 24 at 20 UTC
Wind 7 kt from the Northeast
Visibility 10 km or more
Few clouds at a height of 4000 ft
Becoming
from 24 at 17 UTC to 24 at 20 UTC
Wind 12 kt from the North/Northwest
Probability 30% :
Temporary
from 24 at 17 UTC to 24 at 20 UTC
Visibility: 6000 m
rain showers

TAF: EGAE 241104Z 2412/2420 04007KT 9999 FEW040 BECMG 2417/2420 34012KT PROB30 TEMPO 2417/2420 6000 SHRA

Weather observations and forecasts of more than 4000 airports (METAR and TAF reports).

The available stations are represented by yellow and red dots on the map.

Hover mouse over dot to see the name of the station.

Then click to see weather observations and forecasts.

To change the map : click on the green buttons with a black cross to zoom in, on the green button with a dash to zoom out, or on the green arrows for adjacent maps.


METAR-TAF: